createdAt,value
2022-08-16T00:00:38.675Z,63.69
2022-08-16T00:01:37.612Z,63.59
2022-08-16T00:02:37.002Z,63.69
2022-08-16T00:03:37.768Z,63.79
2022-08-16T00:04:37.038Z,63.49
2022-08-16T00:05:36.988Z,63.79
2022-08-16T00:06:39.348Z,63.69
2022-08-16T00:07:36.972Z,63.89
2022-08-16T00:08:37.699Z,64.00
2022-08-16T00:09:36.933Z,64.00
2022-08-16T00:10:36.928Z,63.89
2022-08-16T00:11:36.896Z,64.03
2022-08-16T00:12:36.908Z,64.22
2022-08-16T00:13:41.896Z,64.03
2022-08-16T00:14:37.753Z,64.03
2022-08-16T00:15:52.085Z,64.12
2022-08-16T00:17:05.812Z,64.22
2022-08-16T00:17:56.826Z,64.03
2022-08-16T00:18:36.836Z,64.42
2022-08-16T00:19:41.142Z,64.32
2022-08-16T00:20:36.830Z,64.32
2022-08-16T00:21:36.804Z,64.52
2022-08-16T00:22:36.783Z,64.62
2022-08-16T00:23:46.064Z,64.42
2022-08-16T00:24:36.766Z,64.42
2022-08-16T00:26:35.816Z,64.52
2022-08-16T00:26:44.392Z,64.52
2022-08-16T00:27:36.733Z,64.52
2022-08-16T00:28:36.717Z,64.62
2022-08-16T00:29:36.719Z,64.62
2022-08-16T00:30:36.699Z,64.52
2022-08-16T00:31:58.728Z,64.62
2022-08-16T00:32:36.712Z,64.62
2022-08-16T00:33:36.682Z,64.72
2022-08-16T00:34:43.446Z,64.72
2022-08-16T00:35:36.651Z,64.62
2022-08-16T00:36:36.628Z,64.83
2022-08-16T00:37:57.163Z,64.92
2022-08-16T00:38:40.866Z,64.62
2022-08-16T00:39:36.647Z,64.72
2022-08-16T00:40:37.019Z,64.83
2022-08-16T00:41:38.142Z,64.92
2022-08-16T00:42:36.571Z,64.72
2022-08-16T00:43:42.769Z,65.02
2022-08-16T00:44:36.582Z,65.02
2022-08-16T00:45:36.679Z,64.92
2022-08-16T00:46:36.546Z,65.05
2022-08-16T00:47:36.912Z,65.16
2022-08-16T00:48:43.718Z,64.95
2022-08-16T00:49:39.176Z,65.05
2022-08-16T00:50:36.850Z,65.16
2022-08-16T00:51:36.495Z,65.25
2022-08-16T00:52:36.469Z,65.36
2022-08-16T00:53:36.454Z,65.25
2022-08-16T00:54:36.442Z,65.45
2022-08-16T00:55:37.774Z,65.66
2022-08-16T00:56:58.118Z,65.66
2022-08-16T00:57:59.051Z,65.45
2022-08-16T00:58:36.417Z,65.45
2022-08-16T00:59:36.393Z,65.55
2022-08-16T01:00:36.475Z,65.75
2022-08-16T01:01:36.395Z,65.95
2022-08-16T01:02:36.382Z,66.05
2022-08-16T01:03:36.348Z,65.86
2022-08-16T01:04:36.333Z,66.05
2022-08-16T01:05:36.344Z,65.95
2022-08-16T01:06:48.785Z,65.95
2022-08-16T01:07:51.647Z,65.95
2022-08-16T01:08:36.961Z,66.09
2022-08-16T01:09:37.411Z,66.19
2022-08-16T05:01:18.610Z,72.56
2022-08-16T05:02:41.165Z,72.67
2022-08-16T05:03:19.613Z,72.56
2022-08-16T05:04:20.206Z,72.47
2022-08-16T05:05:19.485Z,72.47
2022-08-16T05:06:19.476Z,72.67
2022-08-16T05:07:20.408Z,72.77
2022-08-16T05:08:27.967Z,72.67
2022-08-16T05:09:23.234Z,72.87
2022-08-16T05:10:19.785Z,72.77
2022-08-16T05:11:19.387Z,72.87
2022-08-16T05:12:30.284Z,72.97
2022-08-16T05:13:19.413Z,72.67
2022-08-16T05:14:19.992Z,72.67
2022-08-16T05:15:19.350Z,72.67
2022-08-16T05:16:21.434Z,72.56
2022-08-16T05:17:19.328Z,72.56
2022-08-16T05:18:26.907Z,72.47
2022-08-16T05:19:19.316Z,72.56
2022-08-16T05:20:39.049Z,72.67
2022-08-16T05:21:20.939Z,72.56
2022-08-16T05:22:19.299Z,72.56
2022-08-16T05:23:19.262Z,72.67
2022-08-16T05:24:24.691Z,72.47
2022-08-16T05:25:23.062Z,72.67
2022-08-16T05:26:20.274Z,72.37
2022-08-16T05:27:19.212Z,72.63
2022-08-16T05:28:19.203Z,72.56
2022-08-16T05:29:20.628Z,72.56
2022-08-16T05:30:34.915Z,72.53
2022-08-16T05:31:29.886Z,72.77
2022-08-16T05:32:32.403Z,72.83
2022-08-16T05:33:19.153Z,72.77
2022-08-16T05:34:19.994Z,72.94
2022-08-16T05:35:19.127Z,72.63
2022-08-16T05:36:20.862Z,72.97
2022-08-16T05:37:19.115Z,72.74
2022-08-16T05:38:32.717Z,72.74
2022-08-16T05:39:19.090Z,72.74
2022-08-16T05:40:19.109Z,72.74
2022-08-16T05:41:19.102Z,72.53
2022-08-16T05:42:19.701Z,72.53
2022-08-16T05:43:19.032Z,72.83
2022-08-16T05:44:23.927Z,72.74
2022-08-16T05:45:21.923Z,72.53
2022-08-16T05:46:29.528Z,72.33
2022-08-16T05:47:19.005Z,72.33
2022-08-16T05:48:18.980Z,72.43
2022-08-16T05:49:22.403Z,72.63
2022-08-16T05:50:19.550Z,72.33
2022-08-16T05:51:38.798Z,72.63
2022-08-16T05:52:20.893Z,72.74
2022-08-16T05:53:18.950Z,72.63
2022-08-16T05:54:24.713Z,72.83
2022-08-16T05:55:18.935Z,72.74
2022-08-16T05:56:19.476Z,72.83
2022-08-16T05:57:18.897Z,72.63
2022-08-16T05:58:28.968Z,72.63
2022-08-16T05:59:18.884Z,72.53
2022-08-16T06:00:22.423Z,72.43
2022-08-16T06:01:18.922Z,72.53
2022-08-16T06:02:18.860Z,72.53
2022-08-16T06:03:18.831Z,72.43
2022-08-16T06:04:36.264Z,72.53
2022-08-16T06:05:18.807Z,72.43
2022-08-16T06:06:28.029Z,72.43
2022-08-16T06:07:24.733Z,72.53
2022-08-16T06:08:32.348Z,72.43
2022-08-16T06:09:18.783Z,72.20
2022-08-16T06:10:31.881Z,72.20
2022-08-16T06:11:18.738Z,72.00
2022-08-16T06:12:27.363Z,72.09
2022-08-16T06:13:18.714Z,72.20
2022-08-16T06:14:18.717Z,72.09
2022-08-16T06:15:18.685Z,72.09
2022-08-16T06:16:18.879Z,72.09
2022-08-16T06:17:18.666Z,72.09
2022-08-16T06:18:18.657Z,72.09
2022-08-16T06:19:18.656Z,72.00
2022-08-16T06:20:23.641Z,72.00
2022-08-16T06:21:22.750Z,72.09
2022-08-16T06:22:37.672Z,71.90
2022-08-16T06:23:19.238Z,72.09
2022-08-16T06:24:55.094Z,71.70
2022-08-16T06:25:18.631Z,71.90
2022-08-16T06:26:18.660Z,71.90
2022-08-16T06:27:18.556Z,71.80
2022-08-16T06:28:35.703Z,71.80
2022-08-16T06:29:18.558Z,71.70
2022-08-16T06:30:19.708Z,71.90
2022-08-16T06:31:18.512Z,71.90
2022-08-16T06:32:28.105Z,72.00
2022-08-16T06:33:19.830Z,71.96
2022-08-16T06:34:55.828Z,71.86
2022-08-16T06:35:18.497Z,71.86
2022-08-16T06:36:21.016Z,71.56
2022-08-16T06:37:18.498Z,71.66
2022-08-16T06:38:32.546Z,71.46
2022-08-16T06:39:18.459Z,71.66
2022-08-16T06:40:18.536Z,71.56
2022-08-16T06:41:18.459Z,71.56
2022-08-16T06:42:19.047Z,71.46
2022-08-16T06:43:18.393Z,71.46
2022-08-16T06:44:20.962Z,71.56
2022-08-16T06:45:18.367Z,71.46
2022-08-16T06:46:18.359Z,71.16
2022-08-16T06:47:18.359Z,71.36
2022-08-16T06:48:18.784Z,71.46
2022-08-16T06:49:18.325Z,71.56
2022-08-16T06:50:22.276Z,71.16
2022-08-16T06:51:18.298Z,71.26
2022-08-16T06:52:59.744Z,71.36
2022-08-16T06:53:19.848Z,71.26
2022-08-16T06:54:18.284Z,71.16
2022-08-16T06:55:18.254Z,71.26
2022-08-16T06:56:23.375Z,71.26
2022-08-16T06:57:18.238Z,71.16
2022-08-16T06:58:22.692Z,71.03
2022-08-16T06:59:18.222Z,70.93
2022-08-16T07:00:24.055Z,70.93
2022-08-16T07:01:21.497Z,70.73
2022-08-16T07:02:33.087Z,70.83
2022-08-16T07:03:28.323Z,70.73
2022-08-16T07:04:32.042Z,70.53
2022-08-16T07:05:18.151Z,70.53
2022-08-16T07:06:18.152Z,70.62
2022-08-16T07:07:18.126Z,70.53
2022-08-16T07:08:18.124Z,70.43
2022-08-16T07:09:18.106Z,70.62
2022-08-16T07:10:18.094Z,70.53
2022-08-16T07:11:18.087Z,70.43
2022-08-16T07:12:18.089Z,70.32
2022-08-16T07:13:43.702Z,70.32
2022-08-16T07:14:26.486Z,70.32
2022-08-16T07:15:18.857Z,70.19
2022-08-16T07:16:20.500Z,70.19
2022-08-16T07:17:18.016Z,70.19
2022-08-16T07:18:18.007Z,70.19
2022-08-16T07:19:18.271Z,70.19
2022-08-16T07:20:35.701Z,70.19
2022-08-16T07:21:17.986Z,69.89
2022-08-16T07:22:36.514Z,69.89
2022-08-16T07:23:17.961Z,69.69
2022-08-16T07:24:30.313Z,69.49
2022-08-16T07:25:17.955Z,69.49
2022-08-16T07:26:25.206Z,69.39
2022-08-16T07:27:19.121Z,69.39
2022-08-16T07:28:20.972Z,69.59
2022-08-16T07:29:17.895Z,69.39
2022-08-16T07:30:38.168Z,69.16
2022-08-16T07:31:17.873Z,69.06
2022-08-16T07:32:17.882Z,69.16
2022-08-16T07:33:21.434Z,69.16
2022-08-16T07:34:17.871Z,69.16
2022-08-16T07:35:17.815Z,69.06
2022-08-16T07:36:21.756Z,68.66
2022-08-16T07:37:17.808Z,68.66
2022-08-16T07:38:19.841Z,68.66
2022-08-16T07:39:17.774Z,68.55
2022-08-16T07:40:17.856Z,68.55
2022-08-16T07:41:17.835Z,68.36
2022-08-16T07:42:28.464Z,68.36
2022-08-16T07:43:17.744Z,68.32
2022-08-16T07:44:17.746Z,68.36
2022-08-16T07:45:17.732Z,68.36
2022-08-16T07:46:38.500Z,68.26
2022-08-16T07:47:17.699Z,68.13
2022-08-16T07:48:17.685Z,68.23
2022-08-16T07:49:18.143Z,68.13
2022-08-16T07:50:56.150Z,68.02
2022-08-16T07:51:17.653Z,67.82
2022-08-16T07:52:20.134Z,67.82
2022-08-16T07:53:17.621Z,67.82
2022-08-16T07:54:21.184Z,67.82
2022-08-16T07:55:17.705Z,67.93
2022-08-16T07:56:17.602Z,67.72
2022-08-16T07:57:18.930Z,67.63
2022-08-16T07:58:18.459Z,67.63
2022-08-16T07:59:17.566Z,67.63
2022-08-16T08:00:18.713Z,67.52
2022-08-16T08:01:17.642Z,67.29
2022-08-16T08:02:20.046Z,67.29
2022-08-16T08:03:17.520Z,67.29
2022-08-16T08:04:17.560Z,67.29
2022-08-16T08:05:17.494Z,66.89
2022-08-16T08:06:17.512Z,67.09
2022-08-16T08:07:17.532Z,67.19
2022-08-16T08:08:51.178Z,67.09
2022-08-16T08:09:17.476Z,66.89
2022-08-16T08:10:29.159Z,66.69
2022-08-16T08:11:18.187Z,66.69
2022-08-16T08:12:32.303Z,66.49
2022-08-16T08:13:17.467Z,66.36
2022-08-16T08:14:29.920Z,66.36
2022-08-16T08:15:25.190Z,66.36
2022-08-16T08:16:18.977Z,66.16
2022-08-16T08:17:17.366Z,66.16
2022-08-16T08:18:30.278Z,66.16
2022-08-16T08:19:17.353Z,66.26
2022-08-16T08:20:20.780Z,66.06
2022-08-16T08:21:17.339Z,65.96
2022-08-16T08:22:18.929Z,65.76
2022-08-16T08:23:17.295Z,65.76
2022-08-16T08:24:17.310Z,65.56
2022-08-16T08:25:17.271Z,65.43
2022-08-16T08:26:17.856Z,65.53
2022-08-16T08:27:22.907Z,65.43
2022-08-16T08:28:17.287Z,65.23
2022-08-16T08:29:17.235Z,65.23
2022-08-16T08:30:51.779Z,65.03
2022-08-16T08:31:17.384Z,65.13
2022-08-16T08:32:50.446Z,65.13
2022-08-16T08:33:17.204Z,65.03
2022-08-16T08:34:17.175Z,65.13
2022-08-16T08:35:17.177Z,65.03
2022-08-16T08:36:21.912Z,65.13
2022-08-16T08:37:17.155Z,64.80
2022-08-16T08:38:17.154Z,64.60
2022-08-16T08:39:17.150Z,64.40
2022-08-16T08:40:18.594Z,64.00
2022-08-16T08:41:18.939Z,64.20
2022-08-16T08:42:17.092Z,64.40
2022-08-16T08:43:18.341Z,64.40
2022-08-16T08:44:28.835Z,64.30
2022-08-16T08:45:43.057Z,64.10
2022-08-16T08:46:18.077Z,64.00
2022-08-16T08:47:17.041Z,63.80
2022-08-16T08:48:33.259Z,63.80
2022-08-16T08:49:17.023Z,63.47
2022-08-16T08:50:32.133Z,63.47
2022-08-16T08:51:17.037Z,63.27
2022-08-16T08:52:35.164Z,63.27
2022-08-16T08:53:16.987Z,63.17
2022-08-16T08:54:18.698Z,62.57
2022-08-16T08:55:16.968Z,62.57
2022-08-16T08:56:22.954Z,62.57
2022-08-16T08:57:16.959Z,62.77
2022-08-16T08:58:16.935Z,62.87
2022-08-16T08:59:20.080Z,62.57
2022-08-16T09:00:16.925Z,62.48
2022-08-16T09:01:16.894Z,62.34
2022-08-16T09:02:19.569Z,62.45
2022-08-16T09:03:16.867Z,62.15
2022-08-16T09:04:17.473Z,62.15
2022-08-16T09:05:16.882Z,61.94
2022-08-16T09:06:18.585Z,61.65
2022-08-16T09:07:16.821Z,61.52
2022-08-16T09:08:17.786Z,61.11
2022-08-16T09:09:17.514Z,60.92
2022-08-16T09:10:20.700Z,60.52
2022-08-16T09:11:18.363Z,60.42
2022-08-16T09:12:30.189Z,60.12
2022-08-16T09:13:16.760Z,59.82
2022-08-16T09:14:24.786Z,59.69
2022-08-16T09:15:16.777Z,59.30
2022-08-16T09:16:57.460Z,59.30
2022-08-16T09:17:38.187Z,59.30
2022-08-16T09:18:26.294Z,59.09
2022-08-16T09:19:16.708Z,59.19
2022-08-16T09:20:16.968Z,59.30
2022-08-16T09:21:16.725Z,59.19
2022-08-16T09:22:19.778Z,59.19
2022-08-16T09:23:18.432Z,59.30
2022-08-16T09:24:46.901Z,59.30
2022-08-16T09:25:19.648Z,59.17
2022-08-16T09:26:44.273Z,58.97
2022-08-16T09:27:16.663Z,58.57
2022-08-16T09:29:06.737Z,58.37
2022-08-16T09:29:23.992Z,58.47
2022-08-16T09:30:33.395Z,58.67
2022-08-16T09:31:16.590Z,58.47
2022-08-16T09:32:28.712Z,58.27
2022-08-16T09:33:16.551Z,58.17
2022-08-16T09:34:19.372Z,58.07
2022-08-16T09:35:16.513Z,57.94
2022-08-16T09:36:31.650Z,57.75
2022-08-16T09:37:18.101Z,57.54
2022-08-16T09:38:31.199Z,57.35
2022-08-16T09:39:16.715Z,57.15
2022-08-16T09:40:31.839Z,57.24
2022-08-16T09:41:16.483Z,57.15
2022-08-16T09:42:16.574Z,56.82
2022-08-16T09:43:46.360Z,56.42
2022-08-16T09:45:09.189Z,56.72
2022-08-16T09:45:18.060Z,56.42
2022-08-16T09:46:45.927Z,56.32
2022-08-16T09:47:16.440Z,56.23
2022-08-16T09:48:36.955Z,56.32
2022-08-16T09:49:16.398Z,56.23
2022-08-16T09:50:22.527Z,56.23
2022-08-16T09:51:16.368Z,56.12
2022-08-16T09:52:16.347Z,56.02
2022-08-16T09:53:16.908Z,55.43
2022-08-16T09:54:16.852Z,55.63
2022-08-16T09:55:16.321Z,55.73
2022-08-16T09:56:16.317Z,55.30
2022-08-16T09:57:16.362Z,54.21
2022-08-16T09:58:40.687Z,54.11
2022-08-16T09:59:16.323Z,54.11
2022-08-16T10:00:43.979Z,53.71
2022-08-16T10:01:16.246Z,53.58
2022-08-16T10:02:23.059Z,53.19
2022-08-16T10:03:16.314Z,53.49
2022-08-16T10:04:30.310Z,53.58
2022-08-16T10:05:16.229Z,53.49
2022-08-16T10:06:16.200Z,53.58
2022-08-16T10:07:16.666Z,53.49
2022-08-16T10:08:25.755Z,53.46
2022-08-16T10:09:16.166Z,53.16
2022-08-16T10:10:18.979Z,52.86
2022-08-16T10:11:23.893Z,52.67
2022-08-16T10:12:19.420Z,52.76
2022-08-16T10:13:16.507Z,52.86
2022-08-16T10:14:16.298Z,52.96
2022-08-16T10:15:17.129Z,52.86
2022-08-16T10:16:16.098Z,52.76
2022-08-16T10:17:16.102Z,52.64
2022-08-16T10:18:54.032Z,52.64
2022-08-16T10:19:19.438Z,52.24
2022-08-16T10:20:18.814Z,52.64
2022-08-16T10:21:16.032Z,52.44
2022-08-16T10:22:16.034Z,52.44
2022-08-16T10:23:17.303Z,51.95
2022-08-16T10:24:28.632Z,52.14
2022-08-16T10:27:19.389Z,51.95
2022-08-16T10:27:47.309Z,52.24
2022-08-16T10:28:28.049Z,52.14
2022-08-16T10:28:42.003Z,51.72
2022-08-16T10:29:59.933Z,51.23
2022-08-16T10:30:40.577Z,51.03
2022-08-16T10:31:45.364Z,51.03
2022-08-16T10:32:40.580Z,50.83
2022-08-16T10:33:40.618Z,50.83
2022-08-16T10:34:40.527Z,50.93
2022-08-16T10:35:46.700Z,50.93
2022-08-16T10:36:40.524Z,51.03
2022-08-16T10:37:40.520Z,50.93
2022-08-16T10:38:40.487Z,50.83
2022-08-16T10:39:42.140Z,50.60
2022-08-16T10:40:40.485Z,50.60
2022-08-16T10:41:40.494Z,50.21
2022-08-16T10:42:40.915Z,50.21
2022-08-16T10:43:40.450Z,50.31
2022-08-16T10:44:40.413Z,50.11
2022-08-16T10:45:40.415Z,50.01
2022-08-16T10:46:41.987Z,49.71
2022-08-16T10:47:40.409Z,49.61
2022-08-16T10:48:40.371Z,49.11
2022-08-16T10:49:40.463Z,49.19
2022-08-16T10:50:40.392Z,49.09
2022-08-16T10:52:01.093Z,48.80
2022-08-16T10:53:40.325Z,49.09
2022-08-16T10:55:45.134Z,48.99
2022-08-16T10:56:55.539Z,48.20
2022-08-16T10:57:40.310Z,48.20
2022-08-16T10:58:40.318Z,48.08
2022-08-16T10:59:51.915Z,47.88
2022-08-16T11:00:40.253Z,47.58
2022-08-16T11:01:43.666Z,47.28
2022-08-16T11:02:59.863Z,47.28
2022-08-16T11:03:47.643Z,47.66
2022-08-16T11:06:40.443Z,47.16
2022-08-16T11:07:51.682Z,47.26
2022-08-16T11:08:45.310Z,46.97
2022-08-16T11:09:43.961Z,47.04
2022-08-16T11:12:13.676Z,46.74
2022-08-16T11:12:40.180Z,47.04
2022-08-16T11:15:11.392Z,46.64
2022-08-16T11:15:40.102Z,46.55
2022-08-16T11:18:21.261Z,46.42
2022-08-16T11:19:05.591Z,46.92
2022-08-16T11:20:41.102Z,46.62
2022-08-16T11:22:23.074Z,47.02
2022-08-16T11:22:48.622Z,47.00
2022-08-16T11:23:40.003Z,46.70
2022-08-16T11:24:43.540Z,46.30
2022-08-16T11:26:39.992Z,45.49
2022-08-16T11:27:39.969Z,45.39
2022-08-16T11:29:40.023Z,44.80
2022-08-16T11:30:39.928Z,45.17
2022-08-16T11:31:54.039Z,44.78
2022-08-16T11:32:39.918Z,44.70
2022-08-16T11:33:55.531Z,44.90
2022-08-16T11:35:05.899Z,44.70
2022-08-16T11:36:39.868Z,44.60
2022-08-16T11:38:51.907Z,44.10
2022-08-16T11:39:39.895Z,44.20
2022-08-16T11:40:40.762Z,43.88
2022-08-16T11:41:39.805Z,43.98
2022-08-16T11:42:39.799Z,43.98
2022-08-16T11:43:39.797Z,44.09
2022-08-16T11:44:52.590Z,42.88
2022-08-16T11:45:42.430Z,42.68
2022-08-16T11:46:45.531Z,42.19
2022-08-16T11:47:39.755Z,41.59
2022-08-16T11:48:39.734Z,41.30
2022-08-16T11:49:39.743Z,41.39
2022-08-16T11:50:39.730Z,40.98
2022-08-16T11:51:39.703Z,40.98
2022-08-16T11:52:39.732Z,40.76
2022-08-16T11:53:39.705Z,41.25
2022-08-16T11:54:39.667Z,41.16
2022-08-16T11:55:39.674Z,40.86
2022-08-16T11:56:53.180Z,40.66
2022-08-16T11:57:39.658Z,40.25
2022-08-16T11:58:39.629Z,40.55
2022-08-16T11:59:40.241Z,40.84
2022-08-16T12:00:50.555Z,40.92
2022-08-16T12:01:55.335Z,40.72
2022-08-16T12:02:39.626Z,40.13
2022-08-16T12:03:41.823Z,40.23
2022-08-16T12:04:39.625Z,38.73
2022-08-16T12:05:39.726Z,39.42
2022-08-16T12:06:39.546Z,38.64
2022-08-16T12:07:39.536Z,39.23
2022-08-16T12:08:39.547Z,39.32
2022-08-16T12:09:43.173Z,39.40
2022-08-16T12:10:39.506Z,39.31
2022-08-16T12:11:39.511Z,40.00
2022-08-16T12:12:39.490Z,39.68
2022-08-16T12:13:39.475Z,39.39
2022-08-16T12:14:39.462Z,39.26
2022-08-16T12:15:39.455Z,39.26
2022-08-16T12:16:39.447Z,39.07
2022-08-16T12:17:39.444Z,38.87
2022-08-16T12:18:39.759Z,39.07
2022-08-16T12:19:39.417Z,39.05
2022-08-16T12:20:39.403Z,39.15
2022-08-16T12:21:58.876Z,39.25
2022-08-16T12:22:39.388Z,38.56
2022-08-16T12:23:39.378Z,38.85
2022-08-16T12:24:39.349Z,38.76
2022-08-16T12:25:39.337Z,38.76
2022-08-16T12:26:39.326Z,38.26
2022-08-16T12:27:39.606Z,38.34
2022-08-16T12:28:54.032Z,38.54
2022-08-16T12:29:39.334Z,38.15
2022-08-16T12:30:39.362Z,37.85
2022-08-16T12:31:39.283Z,37.76
2022-08-16T12:32:41.908Z,37.85
2022-08-16T12:33:44.563Z,37.74
2022-08-16T12:34:39.259Z,37.63
2022-08-16T12:35:39.259Z,37.34
2022-08-16T12:36:39.239Z,37.93
2022-08-16T12:37:39.211Z,37.42
2022-08-16T12:38:48.304Z,37.13
2022-08-16T12:39:39.252Z,37.32
2022-08-16T12:40:39.240Z,37.42
2022-08-16T12:41:39.217Z,36.44
2022-08-16T12:42:39.175Z,36.34
2022-08-16T12:43:43.403Z,36.05
2022-08-16T12:44:39.153Z,36.03
2022-08-16T12:45:39.134Z,36.22
2022-08-16T12:46:39.151Z,35.64
2022-08-16T12:47:39.113Z,35.54
2022-08-16T12:48:39.100Z,35.33
2022-08-16T12:49:41.695Z,35.03
2022-08-16T12:50:39.078Z,35.03
2022-08-16T12:51:58.007Z,35.03
2022-08-16T12:52:44.422Z,35.33
2022-08-16T12:53:39.859Z,35.13
2022-08-16T12:54:39.038Z,35.33
2022-08-16T12:55:41.777Z,34.92
2022-08-16T12:56:39.033Z,34.92
2022-08-16T12:57:39.003Z,34.62
2022-08-16T12:58:49.736Z,35.02
2022-08-16T12:59:38.990Z,34.83
2022-08-16T13:00:39.030Z,34.74
2022-08-16T13:01:38.963Z,35.03
2022-08-16T13:02:38.971Z,34.83
2022-08-16T13:03:40.615Z,34.92
2022-08-16T13:04:38.932Z,35.21
2022-08-16T13:05:38.943Z,35.00
2022-08-16T13:06:38.921Z,33.72
2022-08-16T13:07:45.067Z,33.43
2022-08-16T13:08:38.907Z,33.33
2022-08-16T13:09:42.451Z,33.43
2022-08-16T13:10:39.376Z,32.74
2022-08-16T13:11:38.866Z,32.43
2022-08-16T13:12:38.857Z,33.41
2022-08-16T13:13:38.861Z,32.63
2022-08-16T13:14:38.831Z,32.92
2022-08-16T13:15:55.556Z,33.12
2022-08-16T13:17:38.796Z,33.10
2022-08-16T13:18:38.784Z,33.00
2022-08-16T13:20:05.967Z,33.00
2022-08-16T13:20:38.797Z,32.99
2022-08-16T13:21:38.759Z,31.81
2022-08-16T13:23:43.383Z,32.01
2022-08-16T13:24:38.726Z,31.42
2022-08-16T13:25:38.730Z,31.81
2022-08-16T13:26:38.746Z,31.31
2022-08-16T13:28:02.714Z,31.31
2022-08-16T13:28:38.684Z,31.60
2022-08-16T13:29:40.147Z,31.01
2022-08-16T13:30:41.941Z,31.01
2022-08-16T13:31:38.655Z,30.91
2022-08-16T13:32:40.095Z,31.80
2022-08-16T13:33:38.635Z,30.80
2022-08-16T13:34:38.631Z,31.01
2022-08-16T13:35:43.010Z,30.90
2022-08-16T13:36:48.836Z,30.41
2022-08-16T13:37:38.613Z,30.80
2022-08-16T13:38:38.574Z,30.90
2022-08-16T13:39:40.345Z,30.22
2022-08-16T13:40:38.572Z,30.22
2022-08-16T13:41:38.545Z,30.32
2022-08-16T13:42:41.433Z,30.02
2022-08-16T13:43:38.550Z,29.53
2022-08-16T13:44:56.060Z,30.10
2022-08-16T13:45:38.517Z,29.61
2022-08-16T13:46:38.796Z,30.10
2022-08-16T13:47:38.484Z,29.71
2022-08-16T13:48:44.067Z,29.71
2022-08-16T13:49:38.472Z,29.52
2022-08-16T13:50:48.954Z,29.31
2022-08-16T13:51:39.194Z,28.72
2022-08-16T13:52:39.861Z,28.71
2022-08-16T13:53:38.438Z,28.91
2022-08-16T13:54:38.421Z,29.00
2022-08-16T13:55:38.404Z,29.39
2022-08-16T13:56:39.663Z,29.49
2022-08-16T13:57:53.541Z,28.91
2022-08-16T13:58:50.518Z,28.99
2022-08-16T13:59:38.361Z,28.99
2022-08-16T14:00:38.357Z,28.59
2022-08-16T14:01:38.339Z,28.89
2022-08-16T14:02:38.400Z,28.81
2022-08-16T14:03:38.317Z,28.52
2022-08-16T14:04:38.352Z,28.32
2022-08-16T14:05:38.302Z,28.40
2022-08-16T14:06:38.302Z,28.01
2022-08-16T14:07:40.604Z,28.20
2022-08-16T14:08:42.465Z,27.62
2022-08-16T14:09:38.267Z,27.62
2022-08-16T14:10:38.271Z,28.01
2022-08-16T14:11:38.241Z,27.61
2022-08-16T14:12:38.230Z,27.23
2022-08-16T14:13:38.219Z,27.42
2022-08-16T14:14:38.215Z,26.82
2022-08-16T14:15:38.198Z,27.02
2022-08-16T14:16:38.212Z,26.32
2022-08-16T14:18:16.055Z,26.13
2022-08-16T14:18:38.180Z,26.72
2022-08-16T14:19:44.878Z,27.20
2022-08-16T14:20:38.671Z,26.91
2022-08-16T14:21:39.361Z,27.11
2022-08-16T14:22:39.761Z,27.22
2022-08-16T14:23:38.138Z,27.31
2022-08-16T14:24:38.109Z,27.22
2022-08-16T14:25:38.093Z,27.41
2022-08-16T14:26:38.122Z,27.12
2022-08-16T14:27:43.889Z,27.22
2022-08-16T14:28:38.078Z,27.31
2022-08-16T14:29:38.429Z,27.22
2022-08-16T14:30:38.055Z,26.92
2022-08-16T14:31:39.712Z,27.02
2022-08-16T14:32:38.051Z,27.20
2022-08-16T14:33:38.044Z,27.20
2022-08-16T14:34:38.024Z,27.30
2022-08-16T14:35:50.077Z,27.39
2022-08-16T14:36:37.999Z,26.31
2022-08-16T14:37:37.987Z,26.70
2022-08-16T14:38:39.534Z,26.59
2022-08-16T14:39:39.401Z,26.30
2022-08-16T14:40:37.947Z,26.20
2022-08-16T14:41:40.926Z,26.29
2022-08-16T14:42:37.926Z,26.48
2022-08-16T14:43:37.918Z,25.80
2022-08-16T14:44:37.945Z,26.08
2022-08-16T14:45:37.908Z,25.98
2022-08-16T14:46:37.882Z,25.20
2022-08-16T14:47:37.873Z,25.78
2022-08-16T14:48:37.871Z,25.48
2022-08-16T14:49:37.912Z,25.68
2022-08-16T14:50:37.838Z,25.97
2022-08-16T14:51:37.859Z,25.18
2022-08-16T14:52:54.691Z,24.98
2022-08-16T14:53:37.823Z,25.08
2022-08-16T14:54:37.800Z,25.16
2022-08-16T14:55:37.791Z,24.88
2022-08-16T14:56:38.460Z,25.15
2022-08-16T14:57:37.771Z,24.77
2022-08-16T14:58:38.090Z,24.57
2022-08-16T14:59:43.751Z,24.66
2022-08-16T15:00:37.754Z,24.27
2022-08-16T15:01:52.122Z,24.35
2022-08-16T15:02:37.753Z,24.26
2022-08-16T15:03:37.835Z,23.87
2022-08-16T15:04:39.668Z,23.58
2022-08-16T15:05:37.697Z,23.48
2022-08-16T15:06:37.713Z,23.58
2022-08-16T15:07:40.208Z,24.06
2022-08-16T15:08:40.428Z,23.86
2022-08-16T15:09:44.284Z,23.47
2022-08-16T15:10:39.015Z,23.36
2022-08-16T15:11:41.944Z,23.16
2022-08-16T15:12:37.708Z,23.07
2022-08-16T15:13:37.630Z,22.28
2022-08-16T15:14:37.601Z,22.67
2022-08-16T15:15:37.833Z,22.28
2022-08-16T15:16:37.593Z,22.17
2022-08-16T15:17:37.614Z,21.88
2022-08-16T15:18:39.310Z,21.88
2022-08-16T15:19:37.551Z,21.68
2022-08-16T15:20:37.566Z,21.88
2022-08-16T15:21:37.547Z,21.39
2022-08-16T15:22:37.526Z,21.10
2022-08-16T15:23:40.399Z,21.78
2022-08-16T15:24:37.920Z,22.16
2022-08-16T15:25:41.302Z,21.96
2022-08-16T15:26:45.087Z,21.95
2022-08-16T15:27:37.484Z,21.47
2022-08-16T15:28:38.083Z,20.68
2022-08-16T15:29:37.465Z,20.68
2022-08-16T15:30:59.939Z,20.67
2022-08-16T15:31:37.444Z,20.28
2022-08-16T15:32:37.428Z,20.76
2022-08-16T15:33:38.939Z,20.56
2022-08-16T15:34:37.416Z,19.98
2022-08-16T15:35:38.731Z,19.98
2022-08-16T15:36:37.411Z,19.68
2022-08-16T15:37:42.700Z,19.87
2022-08-16T15:39:03.765Z,19.38
2022-08-16T15:39:39.707Z,19.57
2022-08-16T15:40:37.475Z,19.57
2022-08-16T15:41:37.340Z,19.67
2022-08-16T15:42:37.350Z,19.76
2022-08-16T15:43:39.673Z,19.85
2022-08-16T15:44:51.907Z,19.27
2022-08-16T15:45:37.309Z,19.27
2022-08-16T15:46:56.292Z,19.08
2022-08-16T15:47:37.284Z,19.37
2022-08-16T15:48:40.374Z,19.27
2022-08-16T15:49:46.405Z,19.76
2022-08-16T15:50:37.266Z,19.57
2022-08-16T15:51:37.233Z,19.59
2022-08-16T15:52:37.256Z,19.70
2022-08-16T15:53:37.712Z,19.80
2022-08-16T15:54:37.233Z,20.10
2022-08-16T15:55:37.216Z,19.92
2022-08-16T15:56:37.197Z,20.51
2022-08-16T15:57:41.306Z,20.81
2022-08-16T15:58:38.674Z,21.20
2022-08-16T15:59:48.486Z,21.81
2022-08-16T16:00:37.212Z,21.82
2022-08-16T16:01:37.146Z,22.02
2022-08-16T16:02:37.134Z,22.42
2022-08-16T16:03:37.966Z,22.72
2022-08-16T16:04:37.130Z,22.34
2022-08-16T16:05:37.124Z,22.44
2022-08-16T16:06:37.102Z,22.74
2022-08-16T16:07:37.087Z,22.94
2022-08-16T16:08:38.931Z,23.24
2022-08-16T16:09:37.422Z,23.35
2022-08-16T16:10:37.054Z,23.74
2022-08-16T16:11:37.050Z,23.65
2022-08-16T16:12:51.008Z,24.05
2022-08-16T16:13:37.022Z,24.05
2022-08-16T16:14:37.013Z,24.06
2022-08-16T16:15:37.095Z,24.37
2022-08-16T16:16:36.992Z,24.27
2022-08-16T16:17:36.982Z,24.48
2022-08-16T16:18:36.974Z,24.67
2022-08-16T16:19:36.962Z,24.78
2022-08-16T16:20:37.345Z,24.78
2022-08-16T16:21:36.976Z,24.88
2022-08-16T16:22:36.927Z,25.08
2022-08-16T16:23:44.823Z,24.99
2022-08-16T16:24:36.908Z,25.39
2022-08-16T16:25:36.922Z,25.39
2022-08-16T16:26:36.890Z,25.78
2022-08-16T16:27:36.909Z,25.88
2022-08-16T16:29:05.927Z,25.70
2022-08-16T16:29:36.997Z,25.79
2022-08-16T16:30:44.805Z,25.60
2022-08-16T16:31:36.858Z,25.51
2022-08-16T16:32:36.823Z,25.42
2022-08-16T16:33:36.866Z,25.81
2022-08-16T16:34:36.808Z,25.71
2022-08-16T16:35:36.802Z,26.39
2022-08-16T16:36:36.784Z,26.40
2022-08-16T16:37:36.775Z,26.60
2022-08-16T16:38:41.940Z,26.01
2022-08-16T16:39:36.793Z,26.11
2022-08-16T16:40:36.743Z,26.50
2022-08-16T16:41:36.737Z,26.50
2022-08-16T16:42:44.135Z,26.60
2022-08-16T16:43:36.717Z,26.60
2022-08-16T16:44:37.286Z,26.11
2022-08-16T16:45:36.730Z,26.21
2022-08-16T16:46:42.606Z,26.42
2022-08-16T16:47:40.849Z,26.42
2022-08-16T16:48:36.668Z,26.42
2022-08-16T16:49:41.617Z,26.33
2022-08-16T16:50:36.647Z,26.53
2022-08-16T16:51:40.664Z,26.53
2022-08-16T16:52:44.805Z,26.64
2022-08-16T16:53:37.840Z,26.64
2022-08-16T16:54:36.594Z,26.84
2022-08-16T16:55:36.585Z,27.14
2022-08-16T16:56:37.761Z,27.24
2022-08-16T16:57:36.590Z,26.96